sensor_id;sensor_type;location;lat;lon;timestamp;temperature;humidity
35463;DHT22;21578;47.892;9.970;2022-07-24T00:01:15;18.70;96.60
35463;DHT22;21578;47.892;9.970;2022-07-24T00:06:02;18.70;96.60
35463;DHT22;21578;47.892;9.970;2022-07-24T00:10:49;18.70;96.60
35463;DHT22;21578;47.892;9.970;2022-07-24T00:15:36;18.60;96.60
35463;DHT22;21578;47.892;9.970;2022-07-24T00:20:24;18.70;96.60
35463;DHT22;21578;47.892;9.970;2022-07-24T00:25:12;18.60;96.60
35463;DHT22;21578;47.892;9.970;2022-07-24T00:29:59;18.60;96.60
35463;DHT22;21578;47.892;9.970;2022-07-24T00:34:46;18.60;96.60
35463;DHT22;21578;47.892;9.970;2022-07-24T00:39:34;18.50;96.60
35463;DHT22;21578;47.892;9.970;2022-07-24T00:44:21;18.40;96.60
35463;DHT22;21578;47.892;9.970;2022-07-24T00:49:10;18.40;96.60
35463;DHT22;21578;47.892;9.970;2022-07-24T00:53:58;18.40;96.60
35463;DHT22;21578;47.892;9.970;2022-07-24T00:58:46;18.30;96.60
35463;DHT22;21578;47.892;9.970;2022-07-24T01:03:33;18.30;96.60
35463;DHT22;21578;47.892;9.970;2022-07-24T01:08:21;18.20;96.60
35463;DHT22;21578;47.892;9.970;2022-07-24T01:13:09;18.20;96.60
35463;DHT22;21578;47.892;9.970;2022-07-24T01:17:58;18.20;96.60
35463;DHT22;21578;47.892;9.970;2022-07-24T01:22:46;18.20;96.60
35463;DHT22;21578;47.892;9.970;2022-07-24T01:27:33;18.20;96.60
35463;DHT22;21578;47.892;9.970;2022-07-24T01:32:20;18.20;96.60
35463;DHT22;21578;47.892;9.970;2022-07-24T01:37:07;18.10;96.60
35463;DHT22;21578;47.892;9.970;2022-07-24T01:41:56;18.00;96.60
35463;DHT22;21578;47.892;9.970;2022-07-24T01:46:43;18.00;96.60
35463;DHT22;21578;47.892;9.970;2022-07-24T01:51:30;18.10;96.60
35463;DHT22;21578;47.892;9.970;2022-07-24T01:56:17;18.00;96.60
35463;DHT22;21578;47.892;9.970;2022-07-24T02:01:06;18.00;96.60
35463;DHT22;21578;47.892;9.970;2022-07-24T02:05:53;17.90;96.60
35463;DHT22;21578;47.892;9.970;2022-07-24T02:10:40;17.90;96.60
35463;DHT22;21578;47.892;9.970;2022-07-24T02:15:27;17.90;96.60
35463;DHT22;21578;47.892;9.970;2022-07-24T02:20:15;18.00;96.60
35463;DHT22;21578;47.892;9.970;2022-07-24T02:25:03;18.00;96.60
35463;DHT22;21578;47.892;9.970;2022-07-24T02:29:50;18.10;96.60
35463;DHT22;21578;47.892;9.970;2022-07-24T02:34:37;18.20;96.60
35463;DHT22;21578;47.892;9.970;2022-07-24T02:39:26;18.30;96.60
35463;DHT22;21578;47.892;9.970;2022-07-24T02:44:13;18.20;96.60
35463;DHT22;21578;47.892;9.970;2022-07-24T02:49:02;18.10;96.60
35463;DHT22;21578;47.892;9.970;2022-07-24T02:53:49;18.00;96.60
35463;DHT22;21578;47.892;9.970;2022-07-24T02:58:37;18.00;96.60
35463;DHT22;21578;47.892;9.970;2022-07-24T03:03:24;18.00;96.60
35463;DHT22;21578;47.892;9.970;2022-07-24T03:08:11;18.00;96.60
35463;DHT22;21578;47.892;9.970;2022-07-24T03:12:58;18.10;96.60
35463;DHT22;21578;47.892;9.970;2022-07-24T03:17:51;18.10;96.60
35463;DHT22;21578;47.892;9.970;2022-07-24T03:22:39;18.10;96.60
35463;DHT22;21578;47.892;9.970;2022-07-24T03:27:26;18.00;96.60
35463;DHT22;21578;47.892;9.970;2022-07-24T03:32:13;17.80;96.60
35463;DHT22;21578;47.892;9.970;2022-07-24T03:37:01;17.60;96.60
35463;DHT22;21578;47.892;9.970;2022-07-24T03:41:48;17.60;96.60
35463;DHT22;21578;47.892;9.970;2022-07-24T03:46:35;17.50;96.60
35463;DHT22;21578;47.892;9.970;2022-07-24T03:51:22;17.50;96.60
35463;DHT22;21578;47.892;9.970;2022-07-24T03:56:11;17.50;96.60
35463;DHT22;21578;47.892;9.970;2022-07-24T04:00:58;17.50;96.60
35463;DHT22;21578;47.892;9.970;2022-07-24T04:05:45;17.50;96.60
35463;DHT22;21578;47.892;9.970;2022-07-24T04:10:32;17.50;96.60
35463;DHT22;21578;47.892;9.970;2022-07-24T04:15:20;17.40;96.60
35463;DHT22;21578;47.892;9.970;2022-07-24T04:20:09;17.30;96.60
35463;DHT22;21578;47.892;9.970;2022-07-24T04:24:56;17.30;96.60
35463;DHT22;21578;47.892;9.970;2022-07-24T04:29:43;17.40;96.60
35463;DHT22;21578;47.892;9.970;2022-07-24T04:34:32;17.40;96.60
35463;DHT22;21578;47.892;9.970;2022-07-24T04:39:19;17.50;96.60
35463;DHT22;21578;47.892;9.970;2022-07-24T04:44:06;17.60;96.60
35463;DHT22;21578;47.892;9.970;2022-07-24T04:48:53;17.60;96.60
35463;DHT22;21578;47.892;9.970;2022-07-24T04:53:41;17.70;96.60
35463;DHT22;21578;47.892;9.970;2022-07-24T04:58:28;17.70;96.60
35463;DHT22;21578;47.892;9.970;2022-07-24T05:03:15;17.80;96.60
35463;DHT22;21578;47.892;9.970;2022-07-24T05:08:03;17.90;96.60
35463;DHT22;21578;47.892;9.970;2022-07-24T05:12:51;18.00;96.60
35463;DHT22;21578;47.892;9.970;2022-07-24T05:17:38;18.10;96.60
35463;DHT22;21578;47.892;9.970;2022-07-24T05:22:25;18.20;96.60
35463;DHT22;21578;47.892;9.970;2022-07-24T05:27:12;18.30;96.60
35463;DHT22;21578;47.892;9.970;2022-07-24T05:32:01;18.60;96.60
35463;DHT22;21578;47.892;9.970;2022-07-24T05:36:48;18.60;96.60
35463;DHT22;21578;47.892;9.970;2022-07-24T05:41:35;18.70;96.60
35463;DHT22;21578;47.892;9.970;2022-07-24T05:46:22;18.90;96.60
35463;DHT22;21578;47.892;9.970;2022-07-24T05:51:11;19.00;96.60
35463;DHT22;21578;47.892;9.970;2022-07-24T05:55:58;19.00;96.60
35463;DHT22;21578;47.892;9.970;2022-07-24T06:00:45;19.10;96.60
35463;DHT22;21578;47.892;9.970;2022-07-24T06:05:32;19.20;96.60
35463;DHT22;21578;47.892;9.970;2022-07-24T06:10:21;19.40;96.60
35463;DHT22;21578;47.892;9.970;2022-07-24T06:15:08;19.60;96.60
35463;DHT22;21578;47.892;9.970;2022-07-24T06:19:55;19.80;96.60
35463;DHT22;21578;47.892;9.970;2022-07-24T06:24:42;19.80;96.60
35463;DHT22;21578;47.892;9.970;2022-07-24T06:29:31;19.90;96.60
35463;DHT22;21578;47.892;9.970;2022-07-24T06:34:18;19.90;96.60
35463;DHT22;21578;47.892;9.970;2022-07-24T06:39:09;20.10;96.60
35463;DHT22;21578;47.892;9.970;2022-07-24T06:43:56;20.30;96.60
35463;DHT22;21578;47.892;9.970;2022-07-24T06:48:46;20.30;96.60
35463;DHT22;21578;47.892;9.970;2022-07-24T06:53:33;20.50;96.60
35463;DHT22;21578;47.892;9.970;2022-07-24T06:58:20;20.50;96.60
35463;DHT22;21578;47.892;9.970;2022-07-24T07:03:08;20.50;96.60
35463;DHT22;21578;47.892;9.970;2022-07-24T07:07:56;20.60;96.60
35463;DHT22;21578;47.892;9.970;2022-07-24T07:12:43;20.70;96.60
35463;DHT22;21578;47.892;9.970;2022-07-24T07:17:31;20.80;96.60
35463;DHT22;21578;47.892;9.970;2022-07-24T07:22:18;20.90;96.60
35463;DHT22;21578;47.892;9.970;2022-07-24T07:27:09;21.00;96.60
35463;DHT22;21578;47.892;9.970;2022-07-24T07:31:57;21.20;96.60
35463;DHT22;21578;47.892;9.970;2022-07-24T07:36:44;21.30;96.60
35463;DHT22;21578;47.892;9.970;2022-07-24T07:41:31;21.40;96.60
35463;DHT22;21578;47.892;9.970;2022-07-24T07:46:20;21.40;96.60
35463;DHT22;21578;47.892;9.970;2022-07-24T07:51:07;21.50;96.60
35463;DHT22;21578;47.892;9.970;2022-07-24T07:55:54;21.60;96.60
35463;DHT22;21578;47.892;9.970;2022-07-24T08:00:41;21.80;96.60
35463;DHT22;21578;47.892;9.970;2022-07-24T08:05:29;21.90;96.60
35463;DHT22;21578;47.892;9.970;2022-07-24T08:10:16;22.00;96.60
35463;DHT22;21578;47.892;9.970;2022-07-24T08:15:04;22.10;96.40
35463;DHT22;21578;47.892;9.970;2022-07-24T08:19:52;22.20;95.00
35463;DHT22;21578;47.892;9.970;2022-07-24T08:24:40;22.30;94.60
35463;DHT22;21578;47.892;9.970;2022-07-24T08:29:28;22.50;95.50
35463;DHT22;21578;47.892;9.970;2022-07-24T08:34:15;22.70;94.30
35463;DHT22;21578;47.892;9.970;2022-07-24T08:39:02;22.80;94.80
35463;DHT22;21578;47.892;9.970;2022-07-24T08:43:50;22.80;94.10
35463;DHT22;21578;47.892;9.970;2022-07-24T08:48:42;23.00;93.20
35463;DHT22;21578;47.892;9.970;2022-07-24T08:53:30;23.20;92.50
35463;DHT22;21578;47.892;9.970;2022-07-24T08:58:17;23.30;90.10
35463;DHT22;21578;47.892;9.970;2022-07-24T09:03:05;23.50;89.00
35463;DHT22;21578;47.892;9.970;2022-07-24T09:08:06;23.60;88.00
35463;DHT22;21578;47.892;9.970;2022-07-24T09:12:53;23.90;86.50
35463;DHT22;21578;47.892;9.970;2022-07-24T09:17:48;24.20;87.20
35463;DHT22;21578;47.892;9.970;2022-07-24T09:22:39;24.40;86.40
35463;DHT22;21578;47.892;9.970;2022-07-24T09:27:26;24.50;84.90
35463;DHT22;21578;47.892;9.970;2022-07-24T09:32:22;24.60;84.50
35463;DHT22;21578;47.892;9.970;2022-07-24T09:37:09;24.80;84.20
35463;DHT22;21578;47.892;9.970;2022-07-24T09:42:01;24.80;83.20
35463;DHT22;21578;47.892;9.970;2022-07-24T09:46:54;25.00;83.00
35463;DHT22;21578;47.892;9.970;2022-07-24T09:51:42;25.00;82.10
35463;DHT22;21578;47.892;9.970;2022-07-24T09:56:29;24.90;82.30
35463;DHT22;21578;47.892;9.970;2022-07-24T10:01:21;25.00;80.30
35463;DHT22;21578;47.892;9.970;2022-07-24T10:06:10;25.20;79.80
35463;DHT22;21578;47.892;9.970;2022-07-24T10:10:58;25.50;79.60
35463;DHT22;21578;47.892;9.970;2022-07-24T10:15:52;25.80;80.30
35463;DHT22;21578;47.892;9.970;2022-07-24T10:20:43;25.90;77.50
35463;DHT22;21578;47.892;9.970;2022-07-24T10:25:45;25.80;77.20
35463;DHT22;21578;47.892;9.970;2022-07-24T10:30:35;25.90;79.10
35463;DHT22;21578;47.892;9.970;2022-07-24T10:35:24;26.10;76.60
35463;DHT22;21578;47.892;9.970;2022-07-24T10:40:20;26.40;75.80
35463;DHT22;21578;47.892;9.970;2022-07-24T10:45:16;26.70;73.70
35463;DHT22;21578;47.892;9.970;2022-07-24T10:50:04;27.00;73.10
35463;DHT22;21578;47.892;9.970;2022-07-24T10:55:24;27.20;70.80
35463;DHT22;21578;47.892;9.970;2022-07-24T11:00:21;27.40;69.40
35463;DHT22;21578;47.892;9.970;2022-07-24T11:05:27;27.50;69.90
35463;DHT22;21578;47.892;9.970;2022-07-24T11:10:15;27.80;67.10
35463;DHT22;21578;47.892;9.970;2022-07-24T11:15:04;28.20;64.80
35463;DHT22;21578;47.892;9.970;2022-07-24T11:20:11;28.50;63.30
35463;DHT22;21578;47.892;9.970;2022-07-24T11:25:17;28.40;67.60
35463;DHT22;21578;47.892;9.970;2022-07-24T11:30:06;27.70;69.00
35463;DHT22;21578;47.892;9.970;2022-07-24T11:34:53;27.60;70.80
35463;DHT22;21578;47.892;9.970;2022-07-24T11:39:42;27.60;69.00
35463;DHT22;21578;47.892;9.970;2022-07-24T11:44:31;27.80;68.10
35463;DHT22;21578;47.892;9.970;2022-07-24T11:49:20;27.20;68.50
35463;DHT22;21578;47.892;9.970;2022-07-24T11:54:07;27.60;69.00
35463;DHT22;21578;47.892;9.970;2022-07-24T11:58:54;27.60;68.20
35463;DHT22;21578;47.892;9.970;2022-07-24T12:03:48;27.70;67.30
35463;DHT22;21578;47.892;9.970;2022-07-24T12:08:37;28.00;65.50
35463;DHT22;21578;47.892;9.970;2022-07-24T12:13:24;28.40;64.40
35463;DHT22;21578;47.892;9.970;2022-07-24T12:18:11;28.50;64.30
35463;DHT22;21578;47.892;9.970;2022-07-24T12:23:01;28.70;62.20
35463;DHT22;21578;47.892;9.970;2022-07-24T12:27:50;29.00;61.20
35463;DHT22;21578;47.892;9.970;2022-07-24T12:32:52;28.80;64.70
35463;DHT22;21578;47.892;9.970;2022-07-24T12:37:39;28.80;63.30
35463;DHT22;21578;47.892;9.970;2022-07-24T12:42:30;29.20;63.10
35463;DHT22;21578;47.892;9.970;2022-07-24T12:47:19;29.80;60.40
35463;DHT22;21578;47.892;9.970;2022-07-24T12:52:18;30.30;58.40
35463;DHT22;21578;47.892;9.970;2022-07-24T12:57:08;31.00;58.10
35463;DHT22;21578;47.892;9.970;2022-07-24T13:01:58;31.30;56.40
35463;DHT22;21578;47.892;9.970;2022-07-24T13:06:48;31.20;56.80
35463;DHT22;21578;47.892;9.970;2022-07-24T13:11:35;30.60;56.90
35463;DHT22;21578;47.892;9.970;2022-07-24T13:16:26;30.80;57.00
35463;DHT22;21578;47.892;9.970;2022-07-24T13:21:13;31.10;56.90
35463;DHT22;21578;47.892;9.970;2022-07-24T13:26:02;31.20;55.70
35463;DHT22;21578;47.892;9.970;2022-07-24T13:30:49;31.40;55.70
35463;DHT22;21578;47.892;9.970;2022-07-24T13:35:36;31.00;55.60
35463;DHT22;21578;47.892;9.970;2022-07-24T13:40:23;31.10;55.30
35463;DHT22;21578;47.892;9.970;2022-07-24T13:45:11;31.30;53.30
35463;DHT22;21578;47.892;9.970;2022-07-24T13:49:58;31.20;53.70
35463;DHT22;21578;47.892;9.970;2022-07-24T13:54:45;31.40;54.00
35463;DHT22;21578;47.892;9.970;2022-07-24T13:59:33;31.30;52.10
35463;DHT22;21578;47.892;9.970;2022-07-24T14:04:21;31.10;53.40
35463;DHT22;21578;47.892;9.970;2022-07-24T14:09:08;31.50;52.20
35463;DHT22;21578;47.892;9.970;2022-07-24T14:13:55;31.80;51.20
35463;DHT22;21578;47.892;9.970;2022-07-24T14:18:42;31.50;50.60
35463;DHT22;21578;47.892;9.970;2022-07-24T14:23:31;31.60;51.40
35463;DHT22;21578;47.892;9.970;2022-07-24T14:28:18;31.30;52.40
35463;DHT22;21578;47.892;9.970;2022-07-24T14:33:05;31.10;50.90
35463;DHT22;21578;47.892;9.970;2022-07-24T14:37:52;31.10;51.20
35463;DHT22;21578;47.892;9.970;2022-07-24T14:42:40;31.50;51.80
35463;DHT22;21578;47.892;9.970;2022-07-24T14:47:27;32.10;52.20
35463;DHT22;21578;47.892;9.970;2022-07-24T14:52:14;32.10;51.90
35463;DHT22;21578;47.892;9.970;2022-07-24T14:57:03;31.60;52.50
35463;DHT22;21578;47.892;9.970;2022-07-24T15:01:52;31.50;53.50
35463;DHT22;21578;47.892;9.970;2022-07-24T15:06:40;31.90;52.10
35463;DHT22;21578;47.892;9.970;2022-07-24T15:11:27;32.30;51.90
35463;DHT22;21578;47.892;9.970;2022-07-24T15:16:14;33.10;51.60
35463;DHT22;21578;47.892;9.970;2022-07-24T15:21:03;33.00;48.60
35463;DHT22;21578;47.892;9.970;2022-07-24T15:25:50;32.90;50.10
35463;DHT22;21578;47.892;9.970;2022-07-24T15:30:37;33.20;49.00
35463;DHT22;21578;47.892;9.970;2022-07-24T15:35:24;32.90;49.80
35463;DHT22;21578;47.892;9.970;2022-07-24T15:40:13;32.60;50.60
35463;DHT22;21578;47.892;9.970;2022-07-24T15:45:00;33.30;49.70
35463;DHT22;21578;47.892;9.970;2022-07-24T15:49:47;33.00;48.70
35463;DHT22;21578;47.892;9.970;2022-07-24T15:54:34;32.70;50.20
35463;DHT22;21578;47.892;9.970;2022-07-24T15:59:23;33.00;49.80
35463;DHT22;21578;47.892;9.970;2022-07-24T16:04:10;33.10;48.70
35463;DHT22;21578;47.892;9.970;2022-07-24T16:08:58;33.50;49.50
35463;DHT22;21578;47.892;9.970;2022-07-24T16:13:46;33.40;49.10
35463;DHT22;21578;47.892;9.970;2022-07-24T16:18:34;34.10;48.30
35463;DHT22;21578;47.892;9.970;2022-07-24T16:23:22;34.50;47.20
35463;DHT22;21578;47.892;9.970;2022-07-24T16:28:09;34.90;46.80
35463;DHT22;21578;47.892;9.970;2022-07-24T16:32:56;34.80;46.20
35463;DHT22;21578;47.892;9.970;2022-07-24T16:37:44;34.50;48.00
35463;DHT22;21578;47.892;9.970;2022-07-24T16:42:31;34.30;46.60
35463;DHT22;21578;47.892;9.970;2022-07-24T16:47:18;34.30;47.20
35463;DHT22;21578;47.892;9.970;2022-07-24T16:52:05;34.10;48.00
35463;DHT22;21578;47.892;9.970;2022-07-24T16:56:54;33.90;48.00
35463;DHT22;21578;47.892;9.970;2022-07-24T17:01:41;33.60;47.60
35463;DHT22;21578;47.892;9.970;2022-07-24T17:06:28;33.90;48.00
35463;DHT22;21578;47.892;9.970;2022-07-24T17:11:16;33.80;46.60
35463;DHT22;21578;47.892;9.970;2022-07-24T17:16:05;33.50;47.70
35463;DHT22;21578;47.892;9.970;2022-07-24T17:20:52;33.50;48.60
35463;DHT22;21578;47.892;9.970;2022-07-24T17:25:41;33.40;48.60
35463;DHT22;21578;47.892;9.970;2022-07-24T17:30:28;33.50;48.40
35463;DHT22;21578;47.892;9.970;2022-07-24T17:35:18;33.50;48.90
35463;DHT22;21578;47.892;9.970;2022-07-24T17:40:06;33.30;49.40
35463;DHT22;21578;47.892;9.970;2022-07-24T17:44:53;33.30;49.00
35463;DHT22;21578;47.892;9.970;2022-07-24T17:49:40;33.30;49.20
35463;DHT22;21578;47.892;9.970;2022-07-24T17:54:29;33.30;49.70
35463;DHT22;21578;47.892;9.970;2022-07-24T17:59:16;33.30;49.70
35463;DHT22;21578;47.892;9.970;2022-07-24T18:04:03;33.00;50.10
35463;DHT22;21578;47.892;9.970;2022-07-24T18:08:50;33.00;49.60
35463;DHT22;21578;47.892;9.970;2022-07-24T18:13:39;32.80;50.60
35463;DHT22;21578;47.892;9.970;2022-07-24T18:18:26;32.60;50.60
35463;DHT22;21578;47.892;9.970;2022-07-24T18:23:13;32.40;51.20
35463;DHT22;21578;47.892;9.970;2022-07-24T18:28:00;32.20;51.40
35463;DHT22;21578;47.892;9.970;2022-07-24T18:32:49;31.90;51.80
35463;DHT22;21578;47.892;9.970;2022-07-24T18:37:36;31.60;52.90
35463;DHT22;21578;47.892;9.970;2022-07-24T18:42:23;31.50;53.00
35463;DHT22;21578;47.892;9.970;2022-07-24T18:47:10;31.30;53.50
35463;DHT22;21578;47.892;9.970;2022-07-24T18:51:58;30.80;54.90
35463;DHT22;21578;47.892;9.970;2022-07-24T18:56:45;30.30;56.40
35463;DHT22;21578;47.892;9.970;2022-07-24T19:01:32;29.90;57.50
35463;DHT22;21578;47.892;9.970;2022-07-24T19:06:19;29.40;59.10
35463;DHT22;21578;47.892;9.970;2022-07-24T19:11:07;29.00;60.30
35463;DHT22;21578;47.892;9.970;2022-07-24T19:15:55;28.80;61.30
35463;DHT22;21578;47.892;9.970;2022-07-24T19:20:42;28.60;63.30
35463;DHT22;21578;47.892;9.970;2022-07-24T19:25:29;28.40;64.40
35463;DHT22;21578;47.892;9.970;2022-07-24T19:30:18;28.10;64.90
35463;DHT22;21578;47.892;9.970;2022-07-24T19:35:05;27.80;64.70
35463;DHT22;21578;47.892;9.970;2022-07-24T19:39:53;27.50;66.00
35463;DHT22;21578;47.892;9.970;2022-07-24T19:44:40;27.30;66.30
35463;DHT22;21578;47.892;9.970;2022-07-24T19:49:29;27.10;66.80
35463;DHT22;21578;47.892;9.970;2022-07-24T19:54:17;26.80;67.60
35463;DHT22;21578;47.892;9.970;2022-07-24T19:59:06;26.60;68.50
35463;DHT22;21578;47.892;9.970;2022-07-24T20:03:53;26.50;69.10
35463;DHT22;21578;47.892;9.970;2022-07-24T20:08:41;26.30;70.40
35463;DHT22;21578;47.892;9.970;2022-07-24T20:13:28;26.20;71.60
35463;DHT22;21578;47.892;9.970;2022-07-24T20:18:16;26.00;72.50
35463;DHT22;21578;47.892;9.970;2022-07-24T20:23:03;25.90;73.00
35463;DHT22;21578;47.892;9.970;2022-07-24T20:27:52;25.70;72.30
35463;DHT22;21578;47.892;9.970;2022-07-24T20:32:39;25.70;72.10
35463;DHT22;21578;47.892;9.970;2022-07-24T20:37:26;25.50;72.80
35463;DHT22;21578;47.892;9.970;2022-07-24T20:42:13;25.40;72.70
35463;DHT22;21578;47.892;9.970;2022-07-24T20:47:02;25.30;72.50
35463;DHT22;21578;47.892;9.970;2022-07-24T20:51:49;25.20;72.60
35463;DHT22;21578;47.892;9.970;2022-07-24T20:56:36;25.00;73.40
35463;DHT22;21578;47.892;9.970;2022-07-24T21:01:23;24.90;73.20
35463;DHT22;21578;47.892;9.970;2022-07-24T21:06:11;24.80;72.80
35463;DHT22;21578;47.892;9.970;2022-07-24T21:10:59;24.60;73.50
35463;DHT22;21578;47.892;9.970;2022-07-24T21:15:46;24.50;73.10
35463;DHT22;21578;47.892;9.970;2022-07-24T21:20:33;24.30;73.10
35463;DHT22;21578;47.892;9.970;2022-07-24T21:25:21;24.30;73.30
35463;DHT22;21578;47.892;9.970;2022-07-24T21:30:09;24.20;73.60
35463;DHT22;21578;47.892;9.970;2022-07-24T21:34:56;24.10;74.00
35463;DHT22;21578;47.892;9.970;2022-07-24T21:39:43;24.00;74.00
35463;DHT22;21578;47.892;9.970;2022-07-24T21:44:32;24.00;74.30
35463;DHT22;21578;47.892;9.970;2022-07-24T21:49:19;23.90;74.90
35463;DHT22;21578;47.892;9.970;2022-07-24T21:54:06;23.80;75.50
35463;DHT22;21578;47.892;9.970;2022-07-24T21:58:53;23.70;75.80
35463;DHT22;21578;47.892;9.970;2022-07-24T22:03:41;23.70;76.70
35463;DHT22;21578;47.892;9.970;2022-07-24T22:08:28;23.60;76.20
35463;DHT22;21578;47.892;9.970;2022-07-24T22:13:15;23.50;77.40
35463;DHT22;21578;47.892;9.970;2022-07-24T22:18:03;23.50;77.70
35463;DHT22;21578;47.892;9.970;2022-07-24T22:22:51;23.30;78.10
35463;DHT22;21578;47.892;9.970;2022-07-24T22:27:38;23.20;78.10
35463;DHT22;21578;47.892;9.970;2022-07-24T22:32:26;23.20;79.20
35463;DHT22;21578;47.892;9.970;2022-07-24T22:37:13;23.10;79.40
35463;DHT22;21578;47.892;9.970;2022-07-24T22:42:02;23.00;79.10
35463;DHT22;21578;47.892;9.970;2022-07-24T22:46:50;22.90;79.80
35463;DHT22;21578;47.892;9.970;2022-07-24T22:51:37;22.90;79.50
35463;DHT22;21578;47.892;9.970;2022-07-24T22:56:26;22.80;80.70
35463;DHT22;21578;47.892;9.970;2022-07-24T23:01:15;22.80;81.30
35463;DHT22;21578;47.892;9.970;2022-07-24T23:06:03;22.60;79.90
35463;DHT22;21578;47.892;9.970;2022-07-24T23:10:50;22.50;78.90
35463;DHT22;21578;47.892;9.970;2022-07-24T23:15:37;22.50;82.20
35463;DHT22;21578;47.892;9.970;2022-07-24T23:20:25;22.40;82.70
35463;DHT22;21578;47.892;9.970;2022-07-24T23:25:13;22.30;83.00
35463;DHT22;21578;47.892;9.970;2022-07-24T23:30:00;22.00;83.90
35463;DHT22;21578;47.892;9.970;2022-07-24T23:34:47;21.80;84.90
35463;DHT22;21578;47.892;9.970;2022-07-24T23:39:35;21.70;85.90
35463;DHT22;21578;47.892;9.970;2022-07-24T23:44:23;21.60;86.00
35463;DHT22;21578;47.892;9.970;2022-07-24T23:49:10;21.60;85.60
35463;DHT22;21578;47.892;9.970;2022-07-24T23:53:57;21.60;85.80
35463;DHT22;21578;47.892;9.970;2022-07-24T23:58:45;21.50;86.10
